createdAt,value
2017-11-26T00:00:24.769Z,5.00
2017-11-26T00:02:56.090Z,4.97
2017-11-26T00:05:27.453Z,4.98
2017-11-26T00:07:59.450Z,4.97
2017-11-26T00:10:30.752Z,4.99
2017-11-26T00:13:02.396Z,4.94
2017-11-26T00:15:33.806Z,4.92
2017-11-26T00:18:07.470Z,4.92
2017-11-26T00:20:38.864Z,4.86
2017-11-26T00:23:10.157Z,4.79
2017-11-26T00:25:41.892Z,4.73
2017-11-26T00:28:13.216Z,4.68
2017-11-26T00:30:44.661Z,4.61
2017-11-26T00:33:16.275Z,4.65
2017-11-26T00:35:47.945Z,4.59
2017-11-26T00:38:19.741Z,4.66
2017-11-26T00:40:51.316Z,4.67
2017-11-26T00:43:23.885Z,4.60
2017-11-26T00:45:55.575Z,4.56
2017-11-26T00:48:26.890Z,4.53
2017-11-26T00:50:58.202Z,4.58
2017-11-26T00:53:29.504Z,4.59
2017-11-26T00:56:00.829Z,4.59
2017-11-26T00:58:32.433Z,4.52
2017-11-26T01:01:03.913Z,4.44
2017-11-26T01:03:35.228Z,4.46
2017-11-26T01:06:06.534Z,4.49
2017-11-26T01:08:38.442Z,4.50
2017-11-26T01:11:09.759Z,4.51
2017-11-26T01:13:41.057Z,4.50
2017-11-26T01:16:12.397Z,4.48
2017-11-26T01:18:43.712Z,4.50
2017-11-26T01:21:15.283Z,4.48
2017-11-26T01:23:46.600Z,4.44
2017-11-26T01:26:17.994Z,4.47
2017-11-26T01:28:49.626Z,4.42
2017-11-26T01:31:20.979Z,4.44
2017-11-26T01:33:52.318Z,4.38
2017-11-26T01:36:24.020Z,4.35
2017-11-26T01:38:55.634Z,4.28
2017-11-26T01:41:26.938Z,4.29
2017-11-26T01:43:58.689Z,4.25
2017-11-26T01:46:30.347Z,4.29
2017-11-26T01:49:01.785Z,4.28
2017-11-26T01:51:33.452Z,4.34
2017-11-26T01:54:05.455Z,4.32
2017-11-26T01:56:37.113Z,4.32
2017-11-26T01:59:08.450Z,4.33
2017-11-26T02:01:40.391Z,4.35
2017-11-26T02:04:12.239Z,4.33
2017-11-26T02:06:43.762Z,4.36
2017-11-26T02:09:15.636Z,4.37
2017-11-26T02:11:47.417Z,4.40
2017-11-26T02:14:18.883Z,4.34
2017-11-26T02:16:50.296Z,4.37
2017-11-26T02:19:21.944Z,4.41
2017-11-26T02:21:53.389Z,4.46
2017-11-26T02:24:25.030Z,4.44
2017-11-26T02:26:56.399Z,4.40
2017-11-26T02:29:27.773Z,4.30
2017-11-26T02:32:10.259Z,4.25
2017-11-26T02:35:54.251Z,4.27
2017-11-26T02:38:25.986Z,4.23
2017-11-26T02:40:57.917Z,4.19
2017-11-26T02:43:29.937Z,4.19
2017-11-26T02:46:02.325Z,4.20
2017-11-26T02:48:33.806Z,4.20
2017-11-26T02:51:05.398Z,4.20
2017-11-26T02:53:37.120Z,4.18
2017-11-26T02:56:08.627Z,4.17
2017-11-26T02:58:40.017Z,4.28
2017-11-26T03:01:11.637Z,4.30
2017-11-26T03:03:42.946Z,4.33
2017-11-26T03:06:14.264Z,4.36
2017-11-26T03:08:45.874Z,4.37
2017-11-26T03:11:17.463Z,4.38
2017-11-26T03:13:49.043Z,4.32
2017-11-26T03:16:20.529Z,4.30
2017-11-26T03:18:51.846Z,4.22
2017-11-26T03:21:23.743Z,4.21
2017-11-26T03:23:55.252Z,4.21
2017-11-26T03:26:27.346Z,4.18
2017-11-26T03:28:59.047Z,4.14
2017-11-26T03:31:31.052Z,4.10
2017-11-26T03:34:03.949Z,4.07
2017-11-26T03:36:35.832Z,4.11
2017-11-26T03:39:07.344Z,4.03
2017-11-26T03:41:39.268Z,4.07
2017-11-26T03:44:10.597Z,4.01
2017-11-26T03:46:42.188Z,4.01
2017-11-26T03:49:13.471Z,3.99
2017-11-26T03:51:44.811Z,3.97
2017-11-26T03:54:16.408Z,3.95
2017-11-26T03:56:47.708Z,3.97
2017-11-26T03:59:19.068Z,3.93
2017-11-26T04:01:50.641Z,3.93
2017-11-26T04:04:21.917Z,3.98
2017-11-26T04:06:53.509Z,3.98
2017-11-26T04:09:24.795Z,3.93
2017-11-26T04:11:56.391Z,3.94
2017-11-26T04:14:27.957Z,3.93
2017-11-26T04:16:59.280Z,3.86
2017-11-26T04:19:30.812Z,3.88
2017-11-26T04:22:03.821Z,3.90
2017-11-26T04:24:35.581Z,4.02
2017-11-26T04:27:07.257Z,4.06
2017-11-26T04:29:39.914Z,4.11
2017-11-26T04:32:11.221Z,4.12
2017-11-26T04:34:43.867Z,4.18
2017-11-26T04:37:15.198Z,4.17
2017-11-26T04:39:47.262Z,4.21
2017-11-26T04:42:19.062Z,4.21
2017-11-26T04:44:50.542Z,4.19
2017-11-26T04:47:22.130Z,4.18
2017-11-26T04:49:53.450Z,4.21
2017-11-26T04:52:24.735Z,4.27
2017-11-26T04:54:56.322Z,4.17
2017-11-26T04:57:27.820Z,4.10
2017-11-26T04:59:59.472Z,4.02
2017-11-26T05:02:31.931Z,4.04
2017-11-26T05:05:03.556Z,4.00
2017-11-26T05:07:34.894Z,4.08
2017-11-26T05:10:06.224Z,4.02
2017-11-26T05:12:38.141Z,4.04
2017-11-26T05:15:09.492Z,4.08
2017-11-26T05:17:41.048Z,4.06
2017-11-26T05:20:12.401Z,4.08
2017-11-26T05:22:43.703Z,4.09
2017-11-26T05:25:15.325Z,4.16
2017-11-26T05:27:46.649Z,4.23
2017-11-26T05:30:18.134Z,4.30
2017-11-26T05:32:49.741Z,4.30
2017-11-26T05:35:21.161Z,4.30
2017-11-26T05:37:52.871Z,4.32
2017-11-26T05:40:24.298Z,4.39
2017-11-26T05:42:55.987Z,4.40
2017-11-26T05:45:27.670Z,4.39
2017-11-26T05:47:59.093Z,4.44
2017-11-26T05:50:30.488Z,4.54
2017-11-26T05:53:02.313Z,4.70
2017-11-26T05:55:34.069Z,4.74
2017-11-26T05:58:06.860Z,4.74
2017-11-26T06:00:39.092Z,4.75
2017-11-26T06:03:10.441Z,4.71
2017-11-26T06:05:42.072Z,4.68
2017-11-26T06:08:13.427Z,4.69
2017-11-26T06:10:44.752Z,4.63
2017-11-26T06:13:16.370Z,4.57
2017-11-26T06:15:48.132Z,4.52
2017-11-26T06:18:19.477Z,4.52
2017-11-26T06:20:50.824Z,4.57
2017-11-26T06:23:22.412Z,4.58
2017-11-26T06:25:53.752Z,4.57
2017-11-26T06:28:25.110Z,4.59
2017-11-26T06:30:56.742Z,4.64
2017-11-26T06:33:28.744Z,4.62
2017-11-26T06:36:00.132Z,4.67
2017-11-26T06:38:31.895Z,4.71
2017-11-26T06:41:03.586Z,4.72
2017-11-26T06:43:35.372Z,4.72
2017-11-26T06:46:07.090Z,4.75
2017-11-26T06:48:38.449Z,4.82
2017-11-26T06:51:10.048Z,4.79
2017-11-26T06:53:41.369Z,4.82
2017-11-26T06:56:12.778Z,4.86
2017-11-26T06:58:44.111Z,4.93
2017-11-26T07:01:15.431Z,4.96
2017-11-26T07:03:47.040Z,4.99
2017-11-26T07:06:18.489Z,4.92
2017-11-26T07:08:49.826Z,4.99
2017-11-26T07:11:22.999Z,5.03
2017-11-26T07:13:54.698Z,5.06
2017-11-26T07:16:28.907Z,5.06
2017-11-26T07:19:00.551Z,5.11
2017-11-26T07:21:32.884Z,5.11
2017-11-26T07:24:05.239Z,5.12
2017-11-26T07:26:36.725Z,5.02
2017-11-26T07:29:08.196Z,5.06
2017-11-26T07:31:39.530Z,5.09
2017-11-26T07:34:10.847Z,5.13
2017-11-26T07:36:42.443Z,5.17
2017-11-26T07:39:13.791Z,5.24
2017-11-26T07:41:45.468Z,5.29
2017-11-26T07:44:17.906Z,5.28
2017-11-26T07:46:49.282Z,5.28
2017-11-26T07:49:21.076Z,5.39
2017-11-26T07:51:52.406Z,5.47
2017-11-26T07:54:23.853Z,5.49
2017-11-26T07:56:55.473Z,5.60
2017-11-26T07:59:26.825Z,5.78
2017-11-26T08:01:58.386Z,5.93
2017-11-26T08:04:29.953Z,6.01
2017-11-26T08:07:01.880Z,6.05
2017-11-26T08:09:33.826Z,6.05
2017-11-26T08:12:06.487Z,5.88
2017-11-26T08:14:38.760Z,5.99
2017-11-26T08:17:10.079Z,6.01
2017-11-26T08:19:41.382Z,5.90
2017-11-26T08:22:12.980Z,5.94
2017-11-26T08:24:44.281Z,5.94
2017-11-26T08:27:15.570Z,5.94
2017-11-26T08:29:47.150Z,5.98
2017-11-26T08:32:18.456Z,6.12
2017-11-26T08:34:50.026Z,6.34
2017-11-26T08:37:21.476Z,6.56
2017-11-26T08:39:52.810Z,6.75
2017-11-26T08:42:24.836Z,6.82
2017-11-26T08:44:56.553Z,7.01
2017-11-26T08:47:27.987Z,7.04
2017-11-26T08:49:59.710Z,7.31
2017-11-26T08:52:31.702Z,7.36
2017-11-26T08:55:03.773Z,7.34
2017-11-26T08:57:35.152Z,7.43
2017-11-26T09:00:07.198Z,7.76
2017-11-26T09:02:40.080Z,7.76
2017-11-26T09:05:11.354Z,7.93
2017-11-26T09:07:43.047Z,8.35
2017-11-26T09:10:14.464Z,8.23
2017-11-26T09:12:46.118Z,8.04
2017-11-26T09:15:18.321Z,7.84
2017-11-26T09:17:49.735Z,8.24
2017-11-26T09:20:21.461Z,8.01
2017-11-26T09:22:52.892Z,7.67
2017-11-26T09:25:24.877Z,7.80
2017-11-26T09:27:57.511Z,7.82
2017-11-26T09:30:29.202Z,7.75
2017-11-26T09:33:00.548Z,7.77
2017-11-26T09:35:33.377Z,7.82
2017-11-26T09:38:05.770Z,7.78
2017-11-26T09:40:38.786Z,7.82
2017-11-26T09:43:13.532Z,7.82
2017-11-26T09:45:45.378Z,7.79
2017-11-26T09:48:16.972Z,7.81
2017-11-26T09:50:48.289Z,7.71
2017-11-26T09:53:19.644Z,8.02
2017-11-26T09:55:51.013Z,8.23
2017-11-26T09:58:22.490Z,8.64
2017-11-26T10:00:54.075Z,8.65
2017-11-26T10:03:25.496Z,8.19
2017-11-26T10:05:56.888Z,8.35
2017-11-26T10:08:28.705Z,8.71
2017-11-26T10:11:00.201Z,8.62
2017-11-26T10:13:31.566Z,8.40
2017-11-26T10:16:04.488Z,7.94
2017-11-26T10:18:35.840Z,8.10
2017-11-26T10:21:07.730Z,8.32
2017-11-26T10:23:39.462Z,8.38
2017-11-26T10:26:10.829Z,8.14
2017-11-26T10:28:42.129Z,8.22
2017-11-26T10:31:13.764Z,8.01
2017-11-26T10:33:45.185Z,8.18
2017-11-26T10:36:20.876Z,8.11
2017-11-26T10:38:52.281Z,7.96
2017-11-26T10:41:23.769Z,7.78
2017-11-26T10:43:55.688Z,7.78
2017-11-26T10:46:27.385Z,7.25
2017-11-26T10:48:58.808Z,7.50
2017-11-26T10:51:31.077Z,7.65
2017-11-26T10:54:04.200Z,7.51
2017-11-26T10:56:36.977Z,7.45
2017-11-26T10:59:08.379Z,7.52
2017-11-26T11:01:40.582Z,7.74
2017-11-26T11:04:12.805Z,7.77
2017-11-26T11:06:50.972Z,7.59
2017-11-26T11:09:23.281Z,7.32
2017-11-26T11:11:54.700Z,7.19
2017-11-26T11:14:26.901Z,7.14
2017-11-26T11:16:58.846Z,7.19
2017-11-26T11:19:31.449Z,7.36
2017-11-26T11:22:04.095Z,7.35
2017-11-26T11:24:38.156Z,7.33
2017-11-26T11:27:09.928Z,7.22
2017-11-26T11:29:41.482Z,7.23
2017-11-26T11:32:12.837Z,7.03
2017-11-26T11:34:44.139Z,7.08
2017-11-26T11:37:15.461Z,7.04
2017-11-26T11:39:47.204Z,7.13
2017-11-26T11:42:19.665Z,7.36
2017-11-26T11:44:51.781Z,7.38
2017-11-26T11:47:24.010Z,7.56
2017-11-26T11:49:55.559Z,7.66
2017-11-26T11:52:27.208Z,7.44
2017-11-26T11:54:59.038Z,7.53
2017-11-26T11:57:30.636Z,7.48
2017-11-26T12:00:03.289Z,7.55
2017-11-26T12:02:35.088Z,7.42
2017-11-26T12:05:06.651Z,7.50
2017-11-26T12:07:39.379Z,7.34
2017-11-26T12:10:11.283Z,7.33
2017-11-26T12:12:43.372Z,7.28
2017-11-26T12:15:14.762Z,7.29
2017-11-26T12:17:47.181Z,7.17
2017-11-26T12:20:18.553Z,7.20
2017-11-26T12:22:50.768Z,7.02
2017-11-26T12:25:23.079Z,7.04
2017-11-26T12:27:54.503Z,6.97
2017-11-26T12:30:26.036Z,7.11
2017-11-26T12:35:49.951Z,7.29
2017-11-26T12:38:25.547Z,7.33
2017-11-26T12:43:38.251Z,7.21
2017-11-26T12:46:10.522Z,7.14
2017-11-26T12:48:43.398Z,7.11
2017-11-26T12:51:15.502Z,6.97
2017-11-26T12:53:47.301Z,6.96
2017-11-26T12:56:21.412Z,7.00
2017-11-26T12:58:52.942Z,7.00
2017-11-26T13:01:28.384Z,6.98
2017-11-26T13:03:59.842Z,7.08
2017-11-26T13:06:31.918Z,7.06
2017-11-26T13:09:04.060Z,7.14
2017-11-26T13:11:35.699Z,7.02
2017-11-26T13:14:07.295Z,7.17
2017-11-26T13:16:38.954Z,7.22
2017-11-26T13:19:10.503Z,7.22
2017-11-26T13:21:41.915Z,7.24
2017-11-26T13:24:14.448Z,7.12
2017-11-26T13:26:45.822Z,7.25
2017-11-26T13:29:17.310Z,7.26
2017-11-26T13:31:49.060Z,7.51
2017-11-26T13:34:20.877Z,7.84
2017-11-26T13:36:52.385Z,7.66
2017-11-26T13:39:24.794Z,7.73
2017-11-26T13:41:56.231Z,7.71
2017-11-26T13:44:27.842Z,7.93
2017-11-26T13:46:59.312Z,8.06
2017-11-26T13:49:31.374Z,7.87
2017-11-26T13:52:04.108Z,7.75
2017-11-26T13:54:35.622Z,7.86
2017-11-26T13:57:07.425Z,7.88
2017-11-26T13:59:41.983Z,7.84
2017-11-26T14:02:13.737Z,7.98
2017-11-26T14:04:47.947Z,7.86
2017-11-26T14:07:20.488Z,7.91
2017-11-26T14:09:52.030Z,7.89
2017-11-26T14:12:23.900Z,7.73
2017-11-26T14:14:55.315Z,7.57
2017-11-26T14:17:27.099Z,7.71
2017-11-26T14:19:59.084Z,7.98
2017-11-26T14:22:32.089Z,7.73
2017-11-26T14:25:03.859Z,7.88
2017-11-26T14:27:36.699Z,7.57
2017-11-26T14:30:09.697Z,7.36
2017-11-26T14:32:41.152Z,7.36
2017-11-26T14:35:14.513Z,7.19
2017-11-26T14:37:46.124Z,7.04
2017-11-26T14:40:19.103Z,7.07
2017-11-26T14:42:54.384Z,7.19
2017-11-26T14:45:28.193Z,7.17
2017-11-26T14:47:59.894Z,7.21
2017-11-26T14:50:31.338Z,7.16
2017-11-26T14:53:03.255Z,7.15
2017-11-26T14:55:34.734Z,7.13
2017-11-26T14:58:07.819Z,7.12
2017-11-26T15:00:40.644Z,7.08
2017-11-26T15:03:12.285Z,7.13
2017-11-26T15:05:44.123Z,7.11
2017-11-26T15:08:16.559Z,7.15
2017-11-26T15:10:48.262Z,7.12
2017-11-26T15:13:20.118Z,7.00
2017-11-26T15:15:51.555Z,7.06
2017-11-26T15:18:23.209Z,7.02
2017-11-26T15:20:54.851Z,7.04
2017-11-26T15:23:26.977Z,7.08
2017-11-26T15:25:58.489Z,7.01
2017-11-26T15:28:31.162Z,6.88
2017-11-26T15:31:03.044Z,6.82
2017-11-26T15:33:36.410Z,6.82
2017-11-26T15:36:08.369Z,6.82
2017-11-26T15:38:39.938Z,6.77
2017-11-26T15:41:11.314Z,6.75
2017-11-26T15:43:44.802Z,6.71
2017-11-26T15:46:16.999Z,6.71
2017-11-26T15:48:48.559Z,6.68
2017-11-26T15:51:20.009Z,6.68
2017-11-26T15:53:51.420Z,6.69
2017-11-26T15:56:23.758Z,6.71
2017-11-26T15:58:56.895Z,6.68
2017-11-26T16:01:28.423Z,6.72
2017-11-26T16:04:05.671Z,6.67
2017-11-26T16:06:37.710Z,6.72
2017-11-26T16:09:10.890Z,6.69
2017-11-26T16:11:42.509Z,6.63
2017-11-26T16:14:13.910Z,6.62
2017-11-26T16:16:45.284Z,6.56
2017-11-26T16:19:17.004Z,6.51
2017-11-26T16:21:48.902Z,6.51
2017-11-26T16:24:20.287Z,6.53
2017-11-26T16:26:53.261Z,6.52
2017-11-26T16:29:24.643Z,6.54
2017-11-26T16:31:57.343Z,6.48
2017-11-26T16:34:29.071Z,6.47
2017-11-26T16:37:01.477Z,6.44
2017-11-26T16:39:32.906Z,6.43
2017-11-26T16:42:06.199Z,6.44
2017-11-26T16:44:37.848Z,6.36
2017-11-26T16:47:09.828Z,6.38
2017-11-26T16:49:41.879Z,6.33
2017-11-26T16:52:13.311Z,6.31
2017-11-26T16:54:45.534Z,6.33
2017-11-26T16:57:18.019Z,6.26
2017-11-26T16:59:50.817Z,6.22
2017-11-26T17:02:22.785Z,6.27
2017-11-26T17:04:54.909Z,6.24
2017-11-26T17:07:26.748Z,6.16
2017-11-26T17:09:59.863Z,6.17
2017-11-26T17:12:31.456Z,6.16
2017-11-26T17:15:05.306Z,6.08
2017-11-26T17:17:36.896Z,6.13
2017-11-26T17:20:08.325Z,6.05
2017-11-26T17:22:40.784Z,6.07
2017-11-26T17:25:12.401Z,6.08
2017-11-26T17:27:44.132Z,6.11
2017-11-26T17:30:15.715Z,6.09
2017-11-26T17:32:48.413Z,6.12
2017-11-26T17:35:20.819Z,6.12
2017-11-26T17:37:52.280Z,6.21
2017-11-26T17:40:24.630Z,6.24
2017-11-26T17:42:57.546Z,6.27
2017-11-26T17:45:29.710Z,6.25
2017-11-26T17:48:01.352Z,6.20
2017-11-26T17:50:34.925Z,6.25
2017-11-26T17:53:06.907Z,6.29
2017-11-26T17:55:40.677Z,6.32
2017-11-26T17:58:12.780Z,6.32
2017-11-26T18:00:44.506Z,6.31
2017-11-26T18:03:15.849Z,6.36
2017-11-26T18:05:49.005Z,6.35
2017-11-26T18:08:20.623Z,6.35
2017-11-26T18:10:52.123Z,6.38
2017-11-26T18:13:24.289Z,6.37
2017-11-26T18:15:55.803Z,6.28
2017-11-26T18:18:27.534Z,6.30
2017-11-26T18:21:00.358Z,6.35
2017-11-26T18:23:31.690Z,6.33
2017-11-26T18:26:04.832Z,6.44
2017-11-26T18:28:38.001Z,6.37
2017-11-26T18:31:09.636Z,6.35
2017-11-26T18:33:40.998Z,6.39
2017-11-26T18:36:12.345Z,6.39
2017-11-26T18:38:43.995Z,6.32
2017-11-26T18:41:15.420Z,6.35
2017-11-26T18:43:46.797Z,6.28
2017-11-26T18:46:18.621Z,6.32
2017-11-26T18:48:50.868Z,6.35
2017-11-26T18:51:22.970Z,6.33
2017-11-26T18:53:54.433Z,6.25
2017-11-26T18:56:27.864Z,6.18
2017-11-26T18:59:03.262Z,6.22
2017-11-26T19:01:35.312Z,6.23
2017-11-26T19:04:07.065Z,6.27
2017-11-26T19:06:39.389Z,6.18
2017-11-26T19:09:10.775Z,6.20
2017-11-26T19:11:45.387Z,6.18
2017-11-26T19:14:16.842Z,6.10
2017-11-26T19:16:48.400Z,6.10
2017-11-26T19:19:24.457Z,6.12
2017-11-26T19:22:07.421Z,6.15
2017-11-26T19:24:44.012Z,6.10
2017-11-26T19:27:18.969Z,6.13
2017-11-26T19:29:51.392Z,6.16
2017-11-26T19:32:23.050Z,6.05
2017-11-26T19:34:54.417Z,6.07
2017-11-26T19:37:26.099Z,6.11
2017-11-26T19:39:57.444Z,6.16
2017-11-26T19:42:30.627Z,6.15
2017-11-26T19:45:02.584Z,6.10
2017-11-26T19:47:35.021Z,6.15
2017-11-26T19:50:07.432Z,6.10
2017-11-26T19:52:39.974Z,6.09
2017-11-26T19:55:11.404Z,6.15
2017-11-26T19:57:44.004Z,6.14
2017-11-26T20:00:15.645Z,6.09
2017-11-26T20:02:47.465Z,6.00
2017-11-26T20:05:18.994Z,6.07
2017-11-26T20:07:50.530Z,6.06
2017-11-26T20:10:23.087Z,6.12
2017-11-26T20:12:54.989Z,6.16
2017-11-26T20:15:26.414Z,6.15
2017-11-26T20:17:58.989Z,6.09
2017-11-26T20:20:30.564Z,6.22
2017-11-26T20:23:02.555Z,6.29
2017-11-26T20:25:34.104Z,6.27
2017-11-26T20:28:07.008Z,6.26
2017-11-26T20:30:38.814Z,6.23
2017-11-26T20:33:10.232Z,6.27
2017-11-26T20:35:41.810Z,6.21
2017-11-26T20:38:13.203Z,6.24
2017-11-26T20:40:44.510Z,6.29
2017-11-26T20:43:16.102Z,6.27
2017-11-26T20:45:47.414Z,6.29
2017-11-26T20:48:19.832Z,6.30
2017-11-26T20:50:51.445Z,6.31
2017-11-26T20:53:22.828Z,6.28
2017-11-26T20:55:54.133Z,6.25
2017-11-26T20:58:25.704Z,6.21
2017-11-26T21:00:57.037Z,6.14
2017-11-26T21:03:28.934Z,6.04
2017-11-26T21:06:00.677Z,6.07
2017-11-26T21:08:32.809Z,6.12
2017-11-26T21:11:05.747Z,6.06
2017-11-26T21:13:37.174Z,6.05
2017-11-26T21:16:08.769Z,6.05
2017-11-26T21:21:40.705Z,5.89
2017-11-26T21:24:12.882Z,5.90
2017-11-26T21:26:44.800Z,5.88
2017-11-26T21:29:16.889Z,5.78
2017-11-26T21:31:48.905Z,5.89
2017-11-26T21:34:22.744Z,5.93
2017-11-26T21:36:54.906Z,5.91
2017-11-26T21:39:28.299Z,5.99
2017-11-26T21:42:00.140Z,5.95
2017-11-26T21:44:32.271Z,5.92
2017-11-26T21:47:04.484Z,5.87
2017-11-26T21:49:36.270Z,5.86
2017-11-26T21:52:09.164Z,5.82
2017-11-26T21:54:41.751Z,5.80
2017-11-26T21:57:13.529Z,5.83
2017-11-26T21:59:45.613Z,5.92
2017-11-26T22:02:17.882Z,5.92
2017-11-26T22:04:51.016Z,5.88
2017-11-26T22:07:22.993Z,5.81
2017-11-26T22:09:55.111Z,5.81
2017-11-26T22:12:26.870Z,5.97
2017-11-26T22:14:58.752Z,5.83
2017-11-26T22:17:30.789Z,5.91
2017-11-26T22:20:04.200Z,5.98
2017-11-26T22:22:36.487Z,6.03
2017-11-26T22:25:08.516Z,6.07
2017-11-26T22:27:40.283Z,6.06
2017-11-26T22:30:12.035Z,6.07
2017-11-26T22:35:57.606Z,5.96
2017-11-26T22:38:29.660Z,5.99
2017-11-26T22:41:01.135Z,5.89
2017-11-26T22:43:32.742Z,5.87
2017-11-26T22:46:05.346Z,5.95
2017-11-26T22:48:36.689Z,6.00
2017-11-26T22:51:08.058Z,6.07
2017-11-26T22:53:39.374Z,6.07
2017-11-26T22:56:10.764Z,6.01
2017-11-26T22:58:43.887Z,6.00
2017-11-26T23:01:15.254Z,5.97
2017-11-26T23:03:48.263Z,6.05
2017-11-26T23:06:19.964Z,6.09
2017-11-26T23:08:51.325Z,6.02
2017-11-26T23:11:23.106Z,6.01
2017-11-26T23:13:55.988Z,6.10
2017-11-26T23:16:27.526Z,6.15
2017-11-26T23:18:58.845Z,6.16
2017-11-26T23:21:31.927Z,6.11
2017-11-26T23:24:04.670Z,6.07
2017-11-26T23:26:36.006Z,6.06
2017-11-26T23:29:07.748Z,5.98
2017-11-26T23:31:39.134Z,5.73
2017-11-26T23:34:10.724Z,5.79
2017-11-26T23:36:42.764Z,5.83
2017-11-26T23:39:14.192Z,5.78
2017-11-26T23:41:45.550Z,5.70
2017-11-26T23:44:17.244Z,5.70
2017-11-26T23:46:48.567Z,5.72
2017-11-26T23:49:19.937Z,5.79
2017-11-26T23:51:51.543Z,5.80
2017-11-26T23:54:23.119Z,5.84
2017-11-26T23:56:54.447Z,5.85
2017-11-26T23:59:26.125Z,5.83
